Historyczne dane pomiarowe

Dodano dane terminowe – wersja testowa.

Dane z okresu 1951-2019

Wersja bazy: 1.34 [2019-03-16, lista zmian], aktualizacja planowana na 2019-04-15

Dane meteo z obszaru Polski uzyskane na podstawie danych udostępnionych przez Instytut Meteorologii i Gospodarki Wodnej – Państwowy Instytut Badawczy.

 

Wybierz Datę:    

       

TemperaturaWilgotnośćWiatrCiśnienieOpadyŚniegCzas trwania zjawisk
 Stacja t tx tn tng RH VA  wxwx mslp ppp RRR   cm mm wxwxwxwxwxwxwx
1956-11-09 0.0 1.2 -0.8 -2.0 73.5- 7.0 6.0---- 0.0------------
1956-11-08 1.6 4.3 0.3 -3.1 89.3- 6.3 4.3---- 0.0------------
1956-11-07 2.5 3.8 1.4 -2.2 77.3- 6.0 7.0---- 4.5------------
1956-11-06 2.7 5.1 1.4 0.6 66.3- 5.0 6.7---- 0.0------------
1956-11-05 5.6 8.6 3.8 2.5 70.0- 6.3 6.3---- 2.3------------
1956-11-04 3.4 5.2 0.9 -1.1 74.3- 8.0 5.0---- 0.0------------
1956-11-03 3.0 5.4 1.3 -2.7 75.3- 4.0 5.0---- 0.0------------
1956-11-02 3.2 7.0 1.8 -2.0 67.5- 3.7 3.7---- 0.0------------
1956-11-01 4.8 6.4 1.1 -3.9 88.3- 7.7 6.7---- 2.5------------
1956-10-31 0.2 1.7 -3.6 -4.2 70.5- 4.3 3.7---- 0.0------------
1956-10-30 0.9 1.8 -0.1 -0.2 79.5- 6.0 11.0---- 0.1------------
1956-10-29 2.6 7.0 0.8 3.1 90.3- 8.0 15.0---- 6.6------------
1956-10-28 7.7 9.3 6.4 7.4 90.0- 8.0 14.0---- 5.1------------
1956-10-27 9.0 10.7 6.5 3.9 84.8- 8.0 12.3---- 18.0------------
1956-10-26 7.9 10.0 6.5 2.0 77.5- 8.0 1.0---- 0.1------------
1956-10-25 11.7 15.0 9.6 10.8 75.8- 6.0 5.0---- 0.2------------
1956-10-24 13.1 14.0 10.2 8.8 82.3- 7.3 5.0---- 0.3------------
1956-10-23 11.5 13.4 9.7 10.0 74.3- 7.0 6.0---- 0.0------------
1956-10-22 12.9 14.4 12.2 10.9 69.0- 6.0 6.0---- 0.0------------
1956-10-21 13.4 15.0 10.3 8.2 78.5- 7.3 4.3---- 0.0------------
1956-10-20 10.5 12.2 8.7 4.2 85.5- 7.0 3.0---- 0.7------------
1956-10-19 11.1 13.5 10.0 9.3 80.3- 7.0 4.0---- 0.2------------
1956-10-18 13.0 14.9 9.2 6.7 84.0- 7.7 3.7---- 1.0------------
1956-10-17 10.4 14.3 5.7 -0.9 65.3- 2.7 4.3---- 0.0------------
1956-10-16 8.3 12.8 4.4 -0.9 81.3- 5.3 3.0---- 0.0------------
1956-10-15 7.1 10.9 5.5 1.5 81.3- 2.3 4.3---- 0.0------------
1956-10-14 8.0 11.8 6.9 4.7 75.0- 1.7 7.0---- 0.0------------
1956-10-13 10.9 12.4 10.3 8.2 77.0- 7.7 16.0---- 23.1------------
1956-10-12 11.6 13.6 10.6 7.7 76.5- 7.7 5.3---- 0.0------------
1956-10-11 11.8 13.0 8.1 6.3 78.3- 4.7 7.0---- 0.0------------
1956-10-10 7.8 9.9 3.9 0.7 66.3- 5.0 4.0---- 0.3------------
1956-10-09 9.1 11.3 6.1 4.4 69.3- 5.3 10.3---- 2.2------------
1956-10-08 7.0 9.2 5.3 1.6 71.8- 4.7 3.3---- 0.9------------
1956-10-07 8.5 11.2 7.3 6.9 77.5- 7.0 7.0---- 0.8------------
1956-10-06 9.4 10.7 6.1 2.7 72.8- 7.3 4.7---- 1.8------------
1956-10-05 8.7 12.2 7.1 6.9 85.3- 5.3 6.0---- 0.3------------
1956-10-04 10.9 15.2 8.1 4.2 84.8- 5.3 6.0---- 0.1------------
1956-10-03 12.6 15.9 10.3 10.0 84.0- 5.0 5.7---- 2.7------------
1956-10-02 15.1 20.7 11.4 6.8 84.0- 7.0 4.3---- 26.9------------
1956-10-01 14.9 17.8 10.8 7.6 80.5- 6.0 4.0---- 7.6------------
1956-09-30 14.5 19.0 12.2 8.6 71.5- 2.0 5.7---- 0.0------------
1956-09-29 15.0 18.3 13.9 11.1 72.3- 2.7 5.0---- 0.0------------
1956-09-28 16.2 18.6 14.7 12.1 78.0- 7.3 7.3---- 0.4------------
1956-09-27 16.3 19.8 11.9 9.1 77.0- 3.7 5.0---- 0.0------------
1956-09-26 14.2 18.9 9.4 4.6 82.0- 2.0 7.3---- 0.0------------
1956-09-25 11.5 15.9 5.7 2.8 73.8- 0.3 5.0---- 0.0------------
1956-09-24 10.6 14.2 6.6 4.0 65.0- 1.3 6.0---- 0.0------------
1956-09-23 12.5 14.0 8.4 2.8 67.8- 4.3 7.0---- 0.0------------
1956-09-22 13.2 15.7 8.2 2.6 86.0- 0.3 4.0---- 0.0------------
1956-09-21 12.1 16.1 5.9 2.1 81.8- 1.7 2.7---- 0.0------------
1956-09-20 11.5 15.4 9.6 6.7 73.3- 5.3 4.0---- 0.0------------
1956-09-19 11.2 14.5 6.2 1.6 77.8- 4.3 1.0---- 0.0------------
1956-09-18 11.0 13.9 8.4 6.0 79.5- 3.3 3.7---- 1.0------------
1956-09-17 11.5 13.6 8.0 3.3 64.3- 5.3 7.3---- 4.2------------
1956-09-16 11.1 14.7 9.4 6.5 77.8- 6.0 6.7---- 3.5------------
1956-09-15 12.5 15.5 10.6 8.3 71.0- 2.3 6.7---- 0.0------------
1956-09-14 11.7 15.4 8.0 5.7 84.0- 3.3 1.0---- 0.2------------
1956-09-13 11.8 13.2 9.2 7.0 76.5- 4.3 4.3---- 1.4------------
1956-09-12 12.2 15.7 10.2 12.0 75.0- 5.3 8.0---- 3.0------------
1956-09-11 14.4 16.6 12.7 10.8 84.5- 5.7 2.0---- 13.5------------
369.8 ms

 

Źródłem pochodzenia danych jest Instytut Meteorologii i Gospodarki Wodnej – Państwowy Instytut Badawczy. Dane Instytutu Meteorologii i Gospodarki Wodnej – Państwowego Instytutu Badawczego zostały przetworzone.

Dane źródłowe można odnaleźć na stronie https://dane.imgw.pl